sensor_id;sensor_type;location;lat;lon;timestamp;P1;durP1;ratioP1;P2;durP2;ratioP2
56824;SDS011;42705;50.326;18.772;2023-05-10T00:01:57;8.50;;;4.90;;
56824;SDS011;42705;50.326;18.772;2023-05-10T00:07:19;10.90;;;5.40;;
56824;SDS011;42705;50.326;18.772;2023-05-10T00:12:41;11.20;;;5.80;;
56824;SDS011;42705;50.326;18.772;2023-05-10T00:18:03;9.30;;;5.30;;
56824;SDS011;42705;50.326;18.772;2023-05-10T00:23:25;16.50;;;5.50;;
56824;SDS011;42705;50.326;18.772;2023-05-10T00:28:47;14.50;;;6.10;;
56824;SDS011;42705;50.326;18.772;2023-05-10T00:34:09;12.20;;;6.10;;
56824;SDS011;42705;50.326;18.772;2023-05-10T00:39:31;10.00;;;5.30;;
56824;SDS011;42705;50.326;18.772;2023-05-10T00:44:52;10.20;;;5.80;;
56824;SDS011;42705;50.326;18.772;2023-05-10T00:50:15;8.10;;;5.20;;
56824;SDS011;42705;50.326;18.772;2023-05-10T00:55:37;9.40;;;5.90;;
56824;SDS011;42705;50.326;18.772;2023-05-10T01:00:59;10.60;;;6.50;;
56824;SDS011;42705;50.326;18.772;2023-05-10T01:06:22;10.10;;;5.70;;
56824;SDS011;42705;50.326;18.772;2023-05-10T01:11:44;8.70;;;5.80;;
56824;SDS011;42705;50.326;18.772;2023-05-10T01:17:07;10.40;;;5.90;;
56824;SDS011;42705;50.326;18.772;2023-05-10T01:38:51;14.60;;;6.30;;
56824;SDS011;42705;50.326;18.772;2023-05-10T01:50:00;12.90;;;6.40;;
56824;SDS011;42705;50.326;18.772;2023-05-10T01:55:35;12.50;;;6.40;;
56824;SDS011;42705;50.326;18.772;2023-05-10T02:01:01;11.10;;;6.40;;
56824;SDS011;42705;50.326;18.772;2023-05-10T02:06:26;10.90;;;5.50;;
56824;SDS011;42705;50.326;18.772;2023-05-10T02:11:48;9.50;;;5.90;;
56824;SDS011;42705;50.326;18.772;2023-05-10T02:17:12;13.70;;;7.10;;
56824;SDS011;42705;50.326;18.772;2023-05-10T02:22:35;15.00;;;7.30;;
56824;SDS011;42705;50.326;18.772;2023-05-10T02:33:21;13.60;;;6.90;;
56824;SDS011;42705;50.326;18.772;2023-05-10T02:38:44;14.10;;;7.50;;
56824;SDS011;42705;50.326;18.772;2023-05-10T02:44:07;14.70;;;7.70;;
56824;SDS011;42705;50.326;18.772;2023-05-10T02:49:31;12.10;;;7.80;;
56824;SDS011;42705;50.326;18.772;2023-05-10T02:54:54;15.10;;;8.20;;
56824;SDS011;42705;50.326;18.772;2023-05-10T03:00:20;14.90;;;8.50;;
56824;SDS011;42705;50.326;18.772;2023-05-10T03:05:42;15.00;;;9.20;;
56824;SDS011;42705;50.326;18.772;2023-05-10T03:17:00;12.30;;;7.30;;
56824;SDS011;42705;50.326;18.772;2023-05-10T03:22:34;12.60;;;8.60;;
56824;SDS011;42705;50.326;18.772;2023-05-10T03:28:01;14.30;;;9.50;;
56824;SDS011;42705;50.326;18.772;2023-05-10T03:33:25;16.40;;;9.90;;
56824;SDS011;42705;50.326;18.772;2023-05-10T03:38:48;18.40;;;10.50;;
56824;SDS011;42705;50.326;18.772;2023-05-10T03:44:11;16.50;;;10.10;;
56824;SDS011;42705;50.326;18.772;2023-05-10T03:49:33;13.00;;;8.50;;
56824;SDS011;42705;50.326;18.772;2023-05-10T03:54:55;15.10;;;9.80;;
56824;SDS011;42705;50.326;18.772;2023-05-10T04:00:18;15.80;;;9.80;;
56824;SDS011;42705;50.326;18.772;2023-05-10T04:05:45;13.70;;;8.50;;
56824;SDS011;42705;50.326;18.772;2023-05-10T04:11:08;15.40;;;9.30;;
56824;SDS011;42705;50.326;18.772;2023-05-10T04:16:34;16.10;;;9.30;;
56824;SDS011;42705;50.326;18.772;2023-05-10T04:21:56;13.80;;;8.90;;
56824;SDS011;42705;50.326;18.772;2023-05-10T04:27:17;12.50;;;9.00;;
56824;SDS011;42705;50.326;18.772;2023-05-10T04:32:39;13.90;;;8.50;;
56824;SDS011;42705;50.326;18.772;2023-05-10T04:38:01;13.40;;;7.70;;
56824;SDS011;42705;50.326;18.772;2023-05-10T04:43:23;11.70;;;7.80;;
56824;SDS011;42705;50.326;18.772;2023-05-10T04:48:45;11.90;;;7.10;;
56824;SDS011;42705;50.326;18.772;2023-05-10T04:54:07;11.90;;;6.90;;
56824;SDS011;42705;50.326;18.772;2023-05-10T04:59:29;13.60;;;7.20;;
56824;SDS011;42705;50.326;18.772;2023-05-10T05:04:51;14.10;;;6.80;;
56824;SDS011;42705;50.326;18.772;2023-05-10T05:10:13;15.00;;;7.20;;
56824;SDS011;42705;50.326;18.772;2023-05-10T05:15:35;10.30;;;6.50;;
56824;SDS011;42705;50.326;18.772;2023-05-10T05:20:57;10.70;;;6.20;;
56824;SDS011;42705;50.326;18.772;2023-05-10T05:26:19;12.90;;;6.10;;
56824;SDS011;42705;50.326;18.772;2023-05-10T05:31:42;11.10;;;5.90;;
56824;SDS011;42705;50.326;18.772;2023-05-10T05:37:04;8.00;;;4.90;;
56824;SDS011;42705;50.326;18.772;2023-05-10T05:42:27;10.10;;;5.20;;
56824;SDS011;42705;50.326;18.772;2023-05-10T05:47:52;8.90;;;5.20;;
56824;SDS011;42705;50.326;18.772;2023-05-10T05:53:15;9.80;;;4.50;;
56824;SDS011;42705;50.326;18.772;2023-05-10T05:58:37;12.10;;;4.40;;
56824;SDS011;42705;50.326;18.772;2023-05-10T06:03:59;7.40;;;4.50;;
56824;SDS011;42705;50.326;18.772;2023-05-10T06:20:08;7.30;;;3.20;;
56824;SDS011;42705;50.326;18.772;2023-05-10T06:30:53;6.70;;;3.10;;
56824;SDS011;42705;50.326;18.772;2023-05-10T06:36:15;6.40;;;3.90;;
56824;SDS011;42705;50.326;18.772;2023-05-10T06:41:37;4.80;;;2.80;;
56824;SDS011;42705;50.326;18.772;2023-05-10T06:46:59;4.60;;;2.70;;
56824;SDS011;42705;50.326;18.772;2023-05-10T06:52:22;5.60;;;2.90;;
56824;SDS011;42705;50.326;18.772;2023-05-10T06:57:45;3.80;;;2.70;;
56824;SDS011;42705;50.326;18.772;2023-05-10T07:03:07;3.80;;;2.30;;
56824;SDS011;42705;50.326;18.772;2023-05-10T07:08:32;3.80;;;2.40;;
56824;SDS011;42705;50.326;18.772;2023-05-10T07:13:54;5.70;;;2.80;;
56824;SDS011;42705;50.326;18.772;2023-05-10T07:19:16;3.10;;;2.00;;
56824;SDS011;42705;50.326;18.772;2023-05-10T07:24:38;3.80;;;1.80;;
56824;SDS011;42705;50.326;18.772;2023-05-10T07:30:00;3.60;;;2.10;;
56824;SDS011;42705;50.326;18.772;2023-05-10T07:35:23;4.40;;;2.20;;
56824;SDS011;42705;50.326;18.772;2023-05-10T07:40:44;3.80;;;2.30;;
56824;SDS011;42705;50.326;18.772;2023-05-10T07:46:06;1.80;;;1.60;;
56824;SDS011;42705;50.326;18.772;2023-05-10T07:51:29;4.20;;;2.00;;
56824;SDS011;42705;50.326;18.772;2023-05-10T07:56:50;2.70;;;1.70;;
56824;SDS011;42705;50.326;18.772;2023-05-10T08:02:13;5.40;;;2.10;;
56824;SDS011;42705;50.326;18.772;2023-05-10T08:07:35;7.70;;;2.20;;
56824;SDS011;42705;50.326;18.772;2023-05-10T08:12:57;2.00;;;1.60;;
56824;SDS011;42705;50.326;18.772;2023-05-10T08:18:20;3.60;;;2.00;;
56824;SDS011;42705;50.326;18.772;2023-05-10T08:23:41;3.60;;;2.20;;
56824;SDS011;42705;50.326;18.772;2023-05-10T08:29:05;3.80;;;2.00;;
56824;SDS011;42705;50.326;18.772;2023-05-10T08:34:27;3.50;;;2.10;;
56824;SDS011;42705;50.326;18.772;2023-05-10T08:39:49;2.90;;;2.00;;
56824;SDS011;42705;50.326;18.772;2023-05-10T08:45:11;4.80;;;1.80;;
56824;SDS011;42705;50.326;18.772;2023-05-10T08:56:00;4.10;;;1.30;;
56824;SDS011;42705;50.326;18.772;2023-05-10T09:01:23;2.70;;;1.60;;
56824;SDS011;42705;50.326;18.772;2023-05-10T09:06:46;2.90;;;1.50;;
56824;SDS011;42705;50.326;18.772;2023-05-10T09:12:08;2.10;;;1.60;;
56824;SDS011;42705;50.326;18.772;2023-05-10T09:17:32;2.70;;;1.60;;
56824;SDS011;42705;50.326;18.772;2023-05-10T09:22:56;3.80;;;2.00;;
56824;SDS011;42705;50.326;18.772;2023-05-10T09:28:18;3.50;;;1.90;;
56824;SDS011;42705;50.326;18.772;2023-05-10T09:33:44;2.20;;;1.30;;
56824;SDS011;42705;50.326;18.772;2023-05-10T09:39:09;2.60;;;1.90;;
56824;SDS011;42705;50.326;18.772;2023-05-10T09:44:32;2.90;;;2.00;;
56824;SDS011;42705;50.326;18.772;2023-05-10T09:49:55;6.30;;;2.40;;
56824;SDS011;42705;50.326;18.772;2023-05-10T09:55:46;4.10;;;1.60;;
56824;SDS011;42705;50.326;18.772;2023-05-10T10:01:10;2.50;;;1.90;;
56824;SDS011;42705;50.326;18.772;2023-05-10T10:06:37;2.80;;;1.60;;
56824;SDS011;42705;50.326;18.772;2023-05-10T10:12:01;2.70;;;1.80;;
56824;SDS011;42705;50.326;18.772;2023-05-10T10:17:24;2.50;;;1.80;;
56824;SDS011;42705;50.326;18.772;2023-05-10T10:22:49;1.90;;;1.70;;
56824;SDS011;42705;50.326;18.772;2023-05-10T10:28:31;2.50;;;1.60;;
56824;SDS011;42705;50.326;18.772;2023-05-10T10:34:24;1.80;;;1.40;;
56824;SDS011;42705;50.326;18.772;2023-05-10T10:39:50;3.90;;;1.70;;
56824;SDS011;42705;50.326;18.772;2023-05-10T10:45:12;2.70;;;1.80;;
56824;SDS011;42705;50.326;18.772;2023-05-10T10:56:08;4.90;;;1.70;;
56824;SDS011;42705;50.326;18.772;2023-05-10T11:01:34;2.60;;;2.00;;
56824;SDS011;42705;50.326;18.772;2023-05-10T11:07:15;2.50;;;1.60;;
56824;SDS011;42705;50.326;18.772;2023-05-10T11:12:50;2.00;;;1.80;;
56824;SDS011;42705;50.326;18.772;2023-05-10T11:18:27;4.00;;;1.70;;
56824;SDS011;42705;50.326;18.772;2023-05-10T11:23:51;3.30;;;1.90;;
56824;SDS011;42705;50.326;18.772;2023-05-10T11:29:17;3.20;;;2.00;;
56824;SDS011;42705;50.326;18.772;2023-05-10T11:34:39;4.40;;;1.80;;
56824;SDS011;42705;50.326;18.772;2023-05-10T11:40:01;3.40;;;1.80;;
56824;SDS011;42705;50.326;18.772;2023-05-10T11:45:24;3.50;;;2.00;;
56824;SDS011;42705;50.326;18.772;2023-05-10T11:50:47;2.70;;;2.00;;
56824;SDS011;42705;50.326;18.772;2023-05-10T11:56:10;3.20;;;1.90;;
56824;SDS011;42705;50.326;18.772;2023-05-10T12:01:32;2.50;;;2.10;;
56824;SDS011;42705;50.326;18.772;2023-05-10T12:06:55;3.80;;;2.00;;
56824;SDS011;42705;50.326;18.772;2023-05-10T12:17:40;3.00;;;1.60;;
56824;SDS011;42705;50.326;18.772;2023-05-10T12:23:01;4.00;;;1.70;;
56824;SDS011;42705;50.326;18.772;2023-05-10T12:28:24;2.20;;;2.00;;
56824;SDS011;42705;50.326;18.772;2023-05-10T12:33:52;2.70;;;1.80;;
56824;SDS011;42705;50.326;18.772;2023-05-10T12:39:14;3.20;;;1.80;;
56824;SDS011;42705;50.326;18.772;2023-05-10T12:44:36;5.40;;;2.00;;
56824;SDS011;42705;50.326;18.772;2023-05-10T12:55:20;5.20;;;2.10;;
56824;SDS011;42705;50.326;18.772;2023-05-10T13:00:42;4.00;;;1.90;;
56824;SDS011;42705;50.326;18.772;2023-05-10T13:06:05;5.00;;;2.00;;
56824;SDS011;42705;50.326;18.772;2023-05-10T13:11:28;2.90;;;1.50;;
56824;SDS011;42705;50.326;18.772;2023-05-10T13:27:34;2.80;;;1.40;;
56824;SDS011;42705;50.326;18.772;2023-05-10T13:32:57;2.20;;;1.40;;
56824;SDS011;42705;50.326;18.772;2023-05-10T13:38:19;1.20;;;1.10;;
56824;SDS011;42705;50.326;18.772;2023-05-10T13:43:41;2.80;;;1.80;;
56824;SDS011;42705;50.326;18.772;2023-05-10T13:49:03;4.10;;;1.70;;
56824;SDS011;42705;50.326;18.772;2023-05-10T13:54:25;3.40;;;2.00;;
56824;SDS011;42705;50.326;18.772;2023-05-10T13:59:48;5.30;;;1.90;;
56824;SDS011;42705;50.326;18.772;2023-05-10T14:05:10;5.70;;;2.00;;
56824;SDS011;42705;50.326;18.772;2023-05-10T14:10:32;4.90;;;1.70;;
56824;SDS011;42705;50.326;18.772;2023-05-10T14:15:54;5.20;;;1.70;;
56824;SDS011;42705;50.326;18.772;2023-05-10T14:21:16;3.10;;;1.80;;
56824;SDS011;42705;50.326;18.772;2023-05-10T14:26:38;5.10;;;1.90;;
56824;SDS011;42705;50.326;18.772;2023-05-10T14:32:01;3.20;;;2.10;;
56824;SDS011;42705;50.326;18.772;2023-05-10T14:37:24;3.70;;;1.90;;
56824;SDS011;42705;50.326;18.772;2023-05-10T14:42:47;2.60;;;1.60;;
56824;SDS011;42705;50.326;18.772;2023-05-10T14:48:09;4.80;;;2.00;;
56824;SDS011;42705;50.326;18.772;2023-05-10T14:53:33;8.30;;;2.20;;
56824;SDS011;42705;50.326;18.772;2023-05-10T14:58:55;2.10;;;1.90;;
56824;SDS011;42705;50.326;18.772;2023-05-10T15:04:17;3.80;;;1.70;;
56824;SDS011;42705;50.326;18.772;2023-05-10T15:09:39;5.70;;;1.90;;
56824;SDS011;42705;50.326;18.772;2023-05-10T15:15:02;4.20;;;1.80;;
56824;SDS011;42705;50.326;18.772;2023-05-10T15:20:24;4.40;;;2.10;;
56824;SDS011;42705;50.326;18.772;2023-05-10T15:25:46;7.30;;;2.40;;
56824;SDS011;42705;50.326;18.772;2023-05-10T15:31:09;2.70;;;1.30;;
56824;SDS011;42705;50.326;18.772;2023-05-10T15:36:31;1.10;;;1.00;;
56824;SDS011;42705;50.326;18.772;2023-05-10T15:41:53;3.50;;;1.10;;
56824;SDS011;42705;50.326;18.772;2023-05-10T15:47:15;12.50;;;2.40;;
56824;SDS011;42705;50.326;18.772;2023-05-10T15:52:38;3.50;;;1.90;;
56824;SDS011;42705;50.326;18.772;2023-05-10T15:58:00;5.00;;;2.50;;
56824;SDS011;42705;50.326;18.772;2023-05-10T16:03:22;5.20;;;2.70;;
56824;SDS011;42705;50.326;18.772;2023-05-10T16:08:44;4.50;;;2.20;;
56824;SDS011;42705;50.326;18.772;2023-05-10T16:14:06;2.10;;;1.20;;
56824;SDS011;42705;50.326;18.772;2023-05-10T16:19:28;3.70;;;1.80;;
56824;SDS011;42705;50.326;18.772;2023-05-10T16:24:50;2.80;;;1.50;;
56824;SDS011;42705;50.326;18.772;2023-05-10T16:30:14;3.70;;;1.80;;
56824;SDS011;42705;50.326;18.772;2023-05-10T16:35:35;2.10;;;1.70;;
56824;SDS011;42705;50.326;18.772;2023-05-10T16:40:58;4.00;;;1.80;;
56824;SDS011;42705;50.326;18.772;2023-05-10T16:46:22;7.00;;;1.90;;
56824;SDS011;42705;50.326;18.772;2023-05-10T16:51:44;4.50;;;2.10;;
56824;SDS011;42705;50.326;18.772;2023-05-10T16:57:06;3.50;;;2.10;;
56824;SDS011;42705;50.326;18.772;2023-05-10T17:02:29;4.70;;;1.90;;
56824;SDS011;42705;50.326;18.772;2023-05-10T17:07:51;2.70;;;2.20;;
56824;SDS011;42705;50.326;18.772;2023-05-10T17:18:37;9.00;;;3.50;;
56824;SDS011;42705;50.326;18.772;2023-05-10T17:24:00;9.20;;;4.70;;
56824;SDS011;42705;50.326;18.772;2023-05-10T17:29:22;10.60;;;4.30;;
56824;SDS011;42705;50.326;18.772;2023-05-10T17:34:44;5.90;;;3.90;;
56824;SDS011;42705;50.326;18.772;2023-05-10T17:40:07;5.90;;;3.90;;
56824;SDS011;42705;50.326;18.772;2023-05-10T17:45:30;11.40;;;5.00;;
56824;SDS011;42705;50.326;18.772;2023-05-10T17:50:52;5.80;;;3.80;;
56824;SDS011;42705;50.326;18.772;2023-05-10T18:01:36;6.20;;;3.00;;
56824;SDS011;42705;50.326;18.772;2023-05-10T18:06:58;5.10;;;2.30;;
56824;SDS011;42705;50.326;18.772;2023-05-10T18:12:23;4.90;;;3.40;;
56824;SDS011;42705;50.326;18.772;2023-05-10T18:17:45;6.80;;;3.00;;
56824;SDS011;42705;50.326;18.772;2023-05-10T18:23:07;7.60;;;3.50;;
56824;SDS011;42705;50.326;18.772;2023-05-10T18:28:31;7.10;;;3.50;;
56824;SDS011;42705;50.326;18.772;2023-05-10T18:33:53;8.60;;;3.40;;
56824;SDS011;42705;50.326;18.772;2023-05-10T18:39:15;7.90;;;3.40;;
56824;SDS011;42705;50.326;18.772;2023-05-10T18:44:38;10.00;;;4.30;;
56824;SDS011;42705;50.326;18.772;2023-05-10T18:50:02;5.20;;;3.10;;
56824;SDS011;42705;50.326;18.772;2023-05-10T18:55:27;7.40;;;3.40;;
56824;SDS011;42705;50.326;18.772;2023-05-10T19:00:51;6.40;;;3.30;;
56824;SDS011;42705;50.326;18.772;2023-05-10T19:06:14;6.50;;;3.60;;
56824;SDS011;42705;50.326;18.772;2023-05-10T19:11:36;7.00;;;4.00;;
56824;SDS011;42705;50.326;18.772;2023-05-10T19:16:58;11.10;;;3.70;;
56824;SDS011;42705;50.326;18.772;2023-05-10T19:22:21;6.80;;;4.60;;
56824;SDS011;42705;50.326;18.772;2023-05-10T19:27:44;8.30;;;4.00;;
56824;SDS011;42705;50.326;18.772;2023-05-10T19:33:09;10.10;;;4.50;;
56824;SDS011;42705;50.326;18.772;2023-05-10T19:38:33;7.80;;;4.50;;
56824;SDS011;42705;50.326;18.772;2023-05-10T19:44:23;7.60;;;4.00;;
56824;SDS011;42705;50.326;18.772;2023-05-10T19:49:52;7.20;;;4.20;;
56824;SDS011;42705;50.326;18.772;2023-05-10T19:55:44;6.60;;;3.60;;
56824;SDS011;42705;50.326;18.772;2023-05-10T20:01:13;7.20;;;3.50;;
56824;SDS011;42705;50.326;18.772;2023-05-10T20:06:36;8.90;;;3.40;;
56824;SDS011;42705;50.326;18.772;2023-05-10T20:11:59;5.10;;;3.80;;
56824;SDS011;42705;50.326;18.772;2023-05-10T20:17:22;8.70;;;3.50;;
56824;SDS011;42705;50.326;18.772;2023-05-10T20:22:45;7.00;;;3.90;;
56824;SDS011;42705;50.326;18.772;2023-05-10T20:28:08;8.80;;;4.20;;
56824;SDS011;42705;50.326;18.772;2023-05-10T20:33:40;6.60;;;3.80;;
56824;SDS011;42705;50.326;18.772;2023-05-10T20:39:04;8.90;;;4.70;;
56824;SDS011;42705;50.326;18.772;2023-05-10T20:44:32;11.90;;;5.00;;
56824;SDS011;42705;50.326;18.772;2023-05-10T20:49:55;7.80;;;4.10;;
56824;SDS011;42705;50.326;18.772;2023-05-10T20:55:17;11.40;;;4.90;;
56824;SDS011;42705;50.326;18.772;2023-05-10T21:06:01;8.80;;;4.30;;
56824;SDS011;42705;50.326;18.772;2023-05-10T21:11:23;9.50;;;4.70;;
56824;SDS011;42705;50.326;18.772;2023-05-10T21:16:46;8.60;;;4.60;;
56824;SDS011;42705;50.326;18.772;2023-05-10T21:22:08;11.20;;;5.30;;
56824;SDS011;42705;50.326;18.772;2023-05-10T21:27:30;8.50;;;4.70;;
56824;SDS011;42705;50.326;18.772;2023-05-10T21:32:52;9.90;;;4.70;;
56824;SDS011;42705;50.326;18.772;2023-05-10T21:38:15;9.50;;;5.70;;
56824;SDS011;42705;50.326;18.772;2023-05-10T21:43:37;8.30;;;4.80;;
56824;SDS011;42705;50.326;18.772;2023-05-10T21:48:59;11.70;;;4.70;;
56824;SDS011;42705;50.326;18.772;2023-05-10T21:54:21;7.00;;;4.30;;
56824;SDS011;42705;50.326;18.772;2023-05-10T21:59:43;10.40;;;4.50;;
56824;SDS011;42705;50.326;18.772;2023-05-10T22:05:04;10.80;;;4.30;;
56824;SDS011;42705;50.326;18.772;2023-05-10T22:10:27;8.70;;;4.80;;
56824;SDS011;42705;50.326;18.772;2023-05-10T22:15:48;9.10;;;4.80;;
56824;SDS011;42705;50.326;18.772;2023-05-10T22:21:12;9.00;;;4.90;;
56824;SDS011;42705;50.326;18.772;2023-05-10T22:26:33;8.70;;;4.60;;
56824;SDS011;42705;50.326;18.772;2023-05-10T22:31:56;12.70;;;4.90;;
56824;SDS011;42705;50.326;18.772;2023-05-10T22:37:18;9.20;;;4.40;;
56824;SDS011;42705;50.326;18.772;2023-05-10T22:42:40;11.70;;;4.50;;
56824;SDS011;42705;50.326;18.772;2023-05-10T22:48:04;8.30;;;4.40;;
56824;SDS011;42705;50.326;18.772;2023-05-10T22:53:26;8.60;;;5.00;;
56824;SDS011;42705;50.326;18.772;2023-05-10T22:58:48;7.70;;;4.80;;
56824;SDS011;42705;50.326;18.772;2023-05-10T23:04:11;11.90;;;5.10;;
56824;SDS011;42705;50.326;18.772;2023-05-10T23:09:33;9.70;;;5.10;;
56824;SDS011;42705;50.326;18.772;2023-05-10T23:14:55;8.50;;;4.70;;
56824;SDS011;42705;50.326;18.772;2023-05-10T23:20:17;8.70;;;4.50;;
56824;SDS011;42705;50.326;18.772;2023-05-10T23:25:39;12.80;;;5.60;;
56824;SDS011;42705;50.326;18.772;2023-05-10T23:31:02;10.20;;;5.30;;
56824;SDS011;42705;50.326;18.772;2023-05-10T23:36:24;10.90;;;5.30;;
56824;SDS011;42705;50.326;18.772;2023-05-10T23:41:45;10.00;;;4.80;;
56824;SDS011;42705;50.326;18.772;2023-05-10T23:47:08;9.60;;;5.40;;
56824;SDS011;42705;50.326;18.772;2023-05-10T23:52:30;8.50;;;4.90;;
56824;SDS011;42705;50.326;18.772;2023-05-10T23:57:52;10.90;;;5.80;;
